This is the latest recevied weather packets stored in our database for station/object CA4LJZ-10. If no packets are shown the sender has not sent any weather packets the latest 10 day(s).
| Time | Temp. | Humidity | Pressure | Rain* | Wind** | Luminosity | Snow |
|---|---|---|---|---|---|---|---|
| 1788155719 | 17.78° C | 46% | 958.8 hPa | - | - | - | - |
| 1788154817 | 17.22° C | 45% | 958.6 hPa | - | - | - | - |
| 1788153916 | 18.33° C | 45% | 958.5 hPa | - | - | - | - |
| 1788153015 | 18.33° C | 46% | 958.5 hPa | - | - | - | - |
| 1788152115 | 19.44° C | 47% | 958.6 hPa | - | - | - | - |
| 1788151214 | 19.44° C | 48% | 958.7 hPa | - | - | - | - |
| 1788150313 | 18.33° C | 46% | 958.5 hPa | - | - | - | - |
| 1788149412 | 19.44° C | 45% | 958.5 hPa | - | - | - | - |
| 1788148511 | 20.56° C | 46% | 958.4 hPa | - | - | - | - |
| 1788147610 | 20.56° C | 45% | 958.2 hPa | - | - | - | - |
| 1788146709 | 19.44° C | 46% | 958.2 hPa | - | - | - | - |
| 1788144908 | 20.56° C | 43% | 957.8 hPa | - | - | - | - |
| 1788143106 | 20.56° C | 42% | 957.5 hPa | - | - | - | - |
| 1788117902 | 26.67° C | 26% | 953.3 hPa | - | - | - | - |
| 1788113420 | 32.22° C | 21% | 953.2 hPa | - | - | - | - |
| 1788104410 | 31.11° C | 21% | 954.4 hPa | - | - | - | - |
| 1788103509 | 30° C | 22% | 954.5 hPa | - | - | - | - |
| 1788100806 | 27.22° C | 27% | 954.7 hPa | - | - | - | - |
| 1788099905 | 26.67° C | 30% | 954.6 hPa | - | - | - | - |
| 1788099004 | 23.33° C | 32% | 954.6 hPa | - | - | - | - |
| 1788098103 | 21.67° C | 34% | 954.5 hPa | - | - | - | - |
| 1788097202 | 20.56° C | 36% | 954.5 hPa | - | - | - | - |
| 1788096301 | 18.89° C | 38% | 954.5 hPa | - | - | - | - |
| 1788095401 | 17.22° C | 43% | 954.2 hPa | - | - | - | - |
| 1788092698 | 15° C | 45% | 953.8 hPa | - | - | - | - |
* Rain since midnight (hover to see other rain measurements)
** Current wind speed in m/s (hover to see current wind gust speed)